Time;durP1;ratioP1;P1;durP2;ratioP2;P2;SDS_P1;SDS_P2;PMS_P1;PMS_P2;Temp;Humidity;BMP_temperature;BMP_pressure;BME280_temperature;BME280_humidity;BME280_pressure;Samples;Min_cycle;Max_cycle;Signal;HPM_P1;HPM_P2
2022/11/24 00:09:33;;;;;;;16.73;3.38;;;;;;;7.62;100.00;99653.28;20993993;28;20051;-70
2022/11/24 00:19:34;;;;;;;12.45;3.63;;;;;;;7.68;100.00;99659.25;20986633;28;20057;-70
2022/11/24 00:29:36;;;;;;;13.52;3.30;;;;;;;7.69;100.00;99671.38;20991819;28;20500;-69
2022/11/24 00:39:37;;;;;;;9.23;3.20;;;;;;;7.67;100.00;99664.50;21076335;22;20052;-76
2022/11/24 00:49:39;;;;;;;11.10;3.08;;;;;;;7.56;100.00;99676.78;20908826;28;20048;-75
2022/11/24 00:59:40;;;;;;;11.57;2.67;;;;;;;7.52;100.00;99688.13;20907525;28;20265;-73
2022/11/24 01:09:44;;;;;;;12.73;3.25;;;;;;;7.56;100.00;99706.31;20907049;28;20053;-73
2022/11/24 01:19:49;;;;;;;11.40;2.80;;;;;;;7.65;100.00;99715.75;20933943;28;20098;-73
2022/11/24 01:29:51;;;;;;;13.85;2.95;;;;;;;7.66;100.00;99718.31;20987936;28;20074;-74
2022/11/24 01:39:52;;;;;;;8.30;2.40;;;;;;;7.61;100.00;99732.28;20986055;28;20052;-74
2022/11/24 01:49:53;;;;;;;12.80;2.60;;;;;;;7.60;100.00;99743.59;20985946;28;20052;-73
2022/11/24 01:59:55;;;;;;;14.25;2.92;;;;;;;7.45;100.00;99737.72;20985652;28;20106;-73
2022/11/24 02:09:56;;;;;;;10.40;2.60;;;;;;;7.26;100.00;99736.25;20984864;28;20420;-73
2022/11/24 02:19:57;;;;;;;14.82;3.53;;;;;;;7.08;100.00;99732.13;20954443;28;20044;-73
2022/11/24 02:29:59;;;;;;;13.43;3.00;;;;;;;6.98;100.00;99742.69;20901676;28;20049;-73
2022/11/24 02:40:00;;;;;;;8.18;2.63;;;;;;;6.88;100.00;99742.78;20893391;28;20049;-73
2022/11/24 02:50:02;;;;;;;13.05;3.15;;;;;;;6.80;100.00;99743.75;20822007;28;20041;-73
2022/11/24 03:00:03;;;;;;;9.95;2.85;;;;;;;6.60;100.00;99744.81;20833306;28;20049;-74
2022/11/24 03:10:05;;;;;;;11.15;2.58;;;;;;;6.62;100.00;99745.66;20834028;28;20533;-73
2022/11/24 03:20:06;;;;;;;13.07;2.60;;;;;;;6.52;100.00;99745.78;20895843;28;20129;-72
2022/11/24 03:30:08;;;;;;;14.25;3.15;;;;;;;6.50;100.00;99750.13;20997649;28;20105;-74
2022/11/24 03:40:09;;;;;;;15.10;2.90;;;;;;;6.47;100.00;99752.75;20997233;28;20048;-75
2022/11/24 03:50:10;;;;;;;13.57;3.00;;;;;;;6.73;100.00;99778.53;20996363;28;20110;-75
2022/11/24 04:00:12;;;;;;;13.90;2.70;;;;;;;6.93;100.00;99774.81;20995421;28;20087;-76
2022/11/24 04:10:13;;;;;;;12.50;2.90;;;;;;;7.02;100.00;99781.66;20994595;28;20504;-75
2022/11/24 04:20:14;;;;;;;13.52;2.78;;;;;;;7.16;100.00;99784.13;20960610;28;20456;-75
2022/11/24 04:30:16;;;;;;;12.02;2.70;;;;;;;7.20;100.00;99791.00;20910271;28;20498;-75
2022/11/24 04:40:17;;;;;;;15.45;2.70;;;;;;;7.33;100.00;99797.81;20910678;28;20095;-75
2022/11/24 04:50:19;;;;;;;16.58;2.67;;;;;;;7.36;100.00;99797.75;20910304;28;20044;-75
2022/11/24 05:00:20;;;;;;;16.30;2.70;;;;;;;7.43;100.00;99822.00;20906683;28;20094;-76
2022/11/24 05:10:34;;;;;;;15.68;3.67;;;;;;;7.53;100.00;99835.75;20907204;28;20571;-73
2022/11/24 05:20:36;;;;;;;14.75;2.72;;;;;;;7.60;100.00;99832.19;20905773;28;20140;-73
2022/11/24 05:30:37;;;;;;;12.55;2.90;;;;;;;7.64;100.00;99839.94;20905150;28;20383;-75
2022/11/24 05:40:39;;;;;;;17.33;3.20;;;;;;;7.69;100.00;99843.34;20905070;28;20521;-74
2022/11/24 05:50:40;;;;;;;16.75;3.25;;;;;;;7.78;100.00;99859.75;20907779;28;20460;-77
2022/11/24 06:00:42;;;;;;;15.40;2.92;;;;;;;7.82;100.00;99874.47;20902722;28;20178;-76
2022/11/24 06:10:43;;;;;;;15.88;2.58;;;;;;;7.74;100.00;99876.31;20902885;28;20110;-75
2022/11/24 06:20:45;;;;;;;17.85;3.22;;;;;;;7.69;100.00;99892.00;20938541;28;20098;-76
2022/11/24 06:31:06;;;;;;;15.02;3.80;;;;;;;7.77;100.00;99902.34;20987037;28;20079;-75
2022/11/24 06:41:08;;;;;;;18.23;3.67;;;;;;;7.67;100.00;99912.00;20986535;28;20051;-79
2022/11/24 06:51:09;;;;;;;26.77;3.78;;;;;;;7.66;100.00;99911.13;20991010;28;20078;-78
2022/11/24 07:01:10;;;;;;;21.92;3.67;;;;;;;7.59;100.00;99919.06;20991823;28;20102;-80
2022/11/24 07:11:14;;;;;;;13.00;3.35;;;;;;;7.56;100.00;99916.47;21000462;28;20052;-78
2022/11/24 07:21:15;;;;;;;17.38;2.80;;;;;;;7.54;100.00;99952.09;20962340;28;20060;-78
2022/11/24 07:31:17;;;;;;;12.70;2.78;;;;;;;7.56;100.00;99955.53;20911587;28;20049;-77
2022/11/24 07:41:19;;;;;;;14.93;2.70;;;;;;;7.58;100.00;99979.84;20914450;28;20048;-80
2022/11/24 07:51:20;;;;;;;9.30;2.20;;;;;;;7.54;100.00;100012.03;20925779;28;20049;-79
2022/11/24 08:01:22;;;;;;;11.73;2.13;;;;;;;7.59;100.00;100023.25;20924282;28;20049;-79
2022/11/24 08:11:23;;;;;;;10.55;1.65;;;;;;;7.71;100.00;100043.97;20942439;28;20048;-78
2022/11/24 08:21:25;;;;;;;6.07;1.10;;;;;;;7.72;100.00;100056.16;20949879;28;20512;-78
2022/11/24 08:31:31;;;;;;;7.05;1.20;;;;;;;7.80;100.00;100059.50;20940913;28;20048;-78
2022/11/24 08:41:34;;;;;;;5.80;1.10;;;;;;;7.92;100.00;100067.22;20940338;28;20045;-78
2022/11/24 08:51:36;;;;;;;4.30;1.38;;;;;;;7.90;100.00;100083.75;20945002;28;20045;-78
2022/11/24 09:01:37;;;;;;;4.13;0.90;;;;;;;8.00;100.00;100105.38;20952757;28;20083;-78
2022/11/24 09:11:39;;;;;;;2.55;0.60;;;;;;;7.91;100.00;100133.28;20922223;28;20053;-78
2022/11/24 09:21:40;;;;;;;3.92;0.75;;;;;;;8.06;100.00;100147.06;20926889;28;20052;-76
2022/11/24 09:31:42;;;;;;;4.43;0.98;;;;;;;8.25;100.00;100163.38;20902423;28;20061;-75
2022/11/24 09:41:43;;;;;;;4.47;0.77;;;;;;;8.30;100.00;100165.06;20903937;28;20044;-76
2022/11/24 09:51:44;;;;;;;7.00;1.13;;;;;;;8.51;100.00;100165.75;20903955;28;20053;-76
2022/11/24 10:01:46;;;;;;;5.03;0.80;;;;;;;9.05;100.00;100156.34;20898825;28;20045;-76
2022/11/24 10:11:47;;;;;;;9.55;1.63;;;;;;;9.32;100.00;100169.94;20899732;28;20452;-75
2022/11/24 10:21:49;;;;;;;8.52;2.00;;;;;;;9.34;100.00;100174.28;20900751;28;20565;-75
2022/11/24 10:31:50;;;;;;;6.05;1.52;;;;;;;9.74;100.00;100165.81;20900170;28;20410;-74
2022/11/24 10:41:52;;;;;;;10.85;2.15;;;;;;;9.64;100.00;100179.94;20900298;28;20493;-70
2022/11/24 10:51:53;;;;;;;10.30;2.28;;;;;;;9.59;100.00;100179.13;20900157;28;20102;-69
2022/11/24 11:01:54;;;;;;;10.60;2.45;;;;;;;9.61;100.00;100179.97;20899379;28;20057;-72
2022/11/24 11:11:56;;;;;;;12.88;2.55;;;;;;;9.92;100.00;100162.91;20929883;28;20045;-70
2022/11/24 11:22:05;;;;;;;9.75;2.40;;;;;;;10.00;100.00;100170.59;20963269;28;20044;-72
2022/11/24 11:32:06;;;;;;;11.18;2.55;;;;;;;9.84;100.00;100180.47;20995748;28;20049;-72
2022/11/24 11:42:28;;;;;;;13.80;2.40;;;;;;;9.45;100.00;100185.41;20994470;28;20151;-73
2022/11/24 11:52:49;;;;;;;19.13;2.70;;;;;;;9.76;100.00;100182.34;20995915;28;20444;-71
2022/11/24 12:02:50;;;;;;;14.40;3.50;;;;;;;9.92;100.00;100189.06;20994289;28;20044;-71
2022/11/24 12:12:54;;;;;;;13.02;2.97;;;;;;;10.30;100.00;100184.94;20993497;28;20091;-71
2022/11/24 12:22:55;;;;;;;12.15;2.67;;;;;;;10.60;100.00;100193.13;20936871;28;20259;-71
2022/11/24 12:32:57;;;;;;;13.90;2.50;;;;;;;10.73;100.00;100207.69;20909722;28;20094;-71
2022/11/24 12:42:58;;;;;;;15.50;2.58;;;;;;;10.62;100.00;100207.91;20909060;28;20049;-71
2022/11/24 12:53:00;;;;;;;7.25;2.03;;;;;;;10.67;100.00;100200.81;20907601;28;20437;-70
2022/11/24 13:03:01;;;;;;;8.82;2.22;;;;;;;10.68;100.00;100210.41;20907177;28;20393;-71
2022/11/24 13:13:03;;;;;;;13.55;2.33;;;;;;;10.66;100.00;100209.56;20905391;28;20114;-70
2022/11/24 13:23:04;;;;;;;15.55;2.40;;;;;;;10.71;100.00;100204.25;20933173;28;20086;-72
2022/11/24 13:33:10;;;;;;;15.02;2.58;;;;;;;10.73;100.00;100200.72;20902932;28;20067;-70
2022/11/24 13:43:17;;;;;;;12.52;2.55;;;;;;;10.64;100.00;100202.66;20902898;28;20048;-70
2022/11/24 13:53:18;;;;;;;12.60;2.72;;;;;;;10.53;100.00;100208.94;20902505;28;20143;-68
2022/11/24 14:03:19;;;;;;;13.40;2.67;;;;;;;10.52;100.00;100203.72;20900975;28;20045;-71
2022/11/24 14:13:21;;;;;;;11.07;2.47;;;;;;;10.55;100.00;100200.22;20900181;28;20094;-71
2022/11/24 14:23:22;;;;;;;12.85;2.30;;;;;;;10.16;100.00;100194.78;20960156;28;20052;-71
2022/11/24 14:33:24;;;;;;;13.23;2.58;;;;;;;9.96;100.00;100195.94;20982537;28;20063;-71
2022/11/24 14:43:25;;;;;;;19.90;3.33;;;;;;;9.91;100.00;100208.22;20982287;28;20049;-70
2022/11/24 14:53:27;;;;;;;11.57;2.40;;;;;;;9.80;100.00;100204.94;20994961;28;20044;-71
2022/11/24 15:03:28;;;;;;;17.05;2.78;;;;;;;9.64;100.00;100206.94;20998401;28;20044;-70
2022/11/24 15:13:30;;;;;;;9.57;2.95;;;;;;;9.32;100.00;100202.16;20990114;28;20118;-70
2022/11/24 15:23:31;;;;;;;14.65;3.30;;;;;;;9.08;100.00;100199.88;20971478;28;20056;-73
2022/11/24 15:33:32;;;;;;;14.85;3.13;;;;;;;8.89;100.00;100209.69;20994055;28;20090;-74
2022/11/24 15:43:34;;;;;;;14.45;2.97;;;;;;;8.65;100.00;100219.50;20994137;28;20480;-73
2022/11/24 15:53:35;;;;;;;14.60;3.50;;;;;;;8.32;100.00;100225.91;20993599;28;20052;-74
2022/11/24 16:03:36;;;;;;;16.20;5.63;;;;;;;7.91;100.00;100232.34;20991164;28;20056;-74
2022/11/24 16:13:48;;;;;;;24.77;9.38;;;;;;;7.63;100.00;100239.47;20994596;28;20220;-74
2022/11/24 16:23:53;;;;;;;17.40;8.40;;;;;;;7.35;100.00;100249.19;20930447;28;20053;-75
2022/11/24 16:33:55;;;;;;;23.25;8.35;;;;;;;7.09;100.00;100251.03;20908371;28;20052;-74
2022/11/24 16:43:56;;;;;;;20.40;6.93;;;;;;;6.87;100.00;100247.66;20906139;28;20049;-73
2022/11/24 16:53:58;;;;;;;21.58;8.98;;;;;;;6.66;100.00;100246.84;20907657;28;20128;-75
2022/11/24 17:03:59;;;;;;;14.27;6.55;;;;;;;6.48;100.00;100254.69;20900498;28;20460;-74
2022/11/24 17:14:01;;;;;;;25.42;8.40;;;;;;;6.21;100.00;100252.97;20898599;28;20056;-74
2022/11/24 17:24:07;;;;;;;18.35;8.70;;;;;;;6.06;100.00;100268.56;20913700;28;20057;-78
2022/11/24 17:34:09;;;;;;;23.45;10.18;;;;;;;5.89;100.00;100272.00;20897225;28;20420;-74
2022/11/24 17:44:11;;;;;;;29.90;13.13;;;;;;;5.71;100.00;100287.56;20895149;28;20179;-74
2022/11/24 17:54:12;;;;;;;27.83;12.93;;;;;;;5.57;100.00;100295.31;20895180;28;20076;-74
2022/11/24 18:04:34;;;;;;;29.95;15.40;;;;;;;5.44;100.00;100292.66;20894350;28;20147;-74
2022/11/24 18:14:35;;;;;;;45.55;21.77;;;;;;;5.29;100.00;100291.75;20893879;28;20055;-74
2022/11/24 18:24:37;;;;;;;57.28;30.02;;;;;;;5.14;100.00;100286.50;20962341;28;20147;-75
2022/11/24 18:34:39;;;;;;;47.13;28.65;;;;;;;5.12;100.00;100276.09;20975793;28;20106;-74
2022/11/24 18:44:43;;;;;;;40.05;25.23;;;;;;;5.02;100.00;100270.84;20991711;28;20052;-74
2022/11/24 18:54:47;;;;;;;43.20;22.48;;;;;;;4.99;100.00;100274.31;20975359;28;20080;-75
2022/11/24 19:04:49;;;;;;;42.90;21.15;;;;;;;5.12;100.00;100270.03;20974796;28;20049;-74
2022/11/24 19:14:50;;;;;;;43.30;22.63;;;;;;;5.15;100.00;100254.47;20930846;28;20049;-74
2022/11/24 19:24:52;;;;;;;43.35;21.80;;;;;;;5.05;100.00;100247.53;20961201;28;20051;-74
2022/11/24 19:34:53;;;;;;;37.20;18.10;;;;;;;4.98;100.00;100267.38;20977714;28;20451;-75
2022/11/24 19:44:55;;;;;;;39.85;18.92;;;;;;;4.79;100.00;100256.06;20976388;28;20119;-75
2022/11/24 19:54:58;;;;;;;22.10;8.15;;;;;;;4.83;100.00;100254.31;20898606;28;20428;-77
2022/11/24 20:05:00;;;;;;;25.52;11.90;;;;;;;4.65;100.00;100252.53;20946302;28;20049;-76
2022/11/24 20:15:01;;;;;;;30.00;15.05;;;;;;;4.52;100.00;100255.88;20929920;28;20122;-76
2022/11/24 20:25:02;;;;;;;30.27;15.85;;;;;;;4.43;100.00;100261.00;20961605;28;20445;-75
2022/11/24 20:35:04;;;;;;;25.98;12.55;;;;;;;4.20;100.00;100266.88;20926147;28;20049;-78
2022/11/24 20:45:05;;;;;;;21.30;9.20;;;;;;;4.07;100.00;100278.00;20901853;28;20053;-76
2022/11/24 20:55:07;;;;;;;21.85;10.00;;;;;;;3.86;100.00;100276.94;20900272;28;20554;-75
2022/11/24 21:05:08;;;;;;;18.85;8.10;;;;;;;3.78;100.00;100259.59;20897810;28;20049;-76
2022/11/24 21:15:10;;;;;;;22.70;9.93;;;;;;;3.64;100.00;100264.66;20881340;28;20102;-76
2022/11/24 21:25:11;;;;;;;20.75;10.20;;;;;;;3.45;100.00;100275.66;20969605;28;20058;-75
2022/11/24 21:35:12;;;;;;;30.30;14.30;;;;;;;3.53;100.00;100269.72;20977440;28;20056;-76
2022/11/24 21:45:14;;;;;;;35.95;16.33;;;;;;;3.53;100.00;100279.19;20977317;28;20428;-75
2022/11/24 21:55:15;;;;;;;35.72;15.88;;;;;;;3.40;100.00;100287.66;20976071;28;20056;-75
2022/11/24 22:05:17;;;;;;;36.10;19.75;;;;;;;3.31;100.00;100271.22;20976829;28;20053;-75
2022/11/24 22:15:18;;;;;;;36.45;18.38;;;;;;;3.16;100.00;100270.13;20976829;28;20052;-75
2022/11/24 22:25:19;;;;;;;38.60;21.02;;;;;;;3.11;100.00;100285.59;20901725;28;20059;-74
2022/11/24 22:35:21;;;;;;;40.15;21.08;;;;;;;3.06;100.00;100276.91;20893052;28;20638;-74
2022/11/24 22:45:22;;;;;;;39.10;19.85;;;;;;;2.97;100.00;100288.03;20894094;28;20053;-74
2022/11/24 22:55:24;;;;;;;35.80;20.23;;;;;;;2.96;100.00;100285.41;20892305;28;20068;-74
2022/11/24 23:05:25;;;;;;;40.78;20.55;;;;;;;2.87;100.00;100286.16;20896423;28;20045;-75
2022/11/24 23:15:26;;;;;;;42.42;21.50;;;;;;;2.83;100.00;100287.84;20915851;28;20045;-75
2022/11/24 23:25:28;;;;;;;35.00;20.92;;;;;;;2.85;100.00;100287.00;20989380;28;20045;-75
2022/11/24 23:35:29;;;;;;;40.80;18.95;;;;;;;2.87;100.00;100278.41;20997618;28;20459;-76
2022/11/24 23:45:30;;;;;;;44.05;22.50;;;;;;;2.91;100.00;100277.59;20996627;28;20063;-74
2022/11/24 23:55:32;;;;;;;36.35;18.95;;;;;;;2.77;100.00;100256.72;20996210;28;20524;-74
